createdAt,value
2017-04-10T00:00:44.030Z,25.37
2017-04-10T00:01:43.174Z,25.82
2017-04-10T00:02:42.304Z,26.10
2017-04-10T00:03:41.470Z,21.90
2017-04-10T00:04:40.725Z,24.28
2017-04-10T00:05:39.907Z,31.28
2017-04-10T00:06:39.087Z,25.83
2017-04-10T00:07:38.221Z,24.73
2017-04-10T00:08:37.387Z,26.97
2017-04-10T00:09:36.542Z,23.45
2017-04-10T00:10:36.045Z,28.78
2017-04-10T00:11:35.238Z,26.80
2017-04-10T00:12:34.361Z,20.40
2017-04-10T00:13:33.522Z,26.88
2017-04-10T00:14:32.661Z,25.73
2017-04-10T00:15:31.791Z,23.50
2017-04-10T00:16:30.942Z,23.78
2017-04-10T00:17:30.065Z,23.90
2017-04-10T00:18:29.226Z,23.05
2017-04-10T00:19:28.366Z,23.63
2017-04-10T00:20:27.498Z,25.23
2017-04-10T00:21:26.626Z,21.90
2017-04-10T00:22:25.819Z,23.17
2017-04-10T00:23:24.947Z,23.73
2017-04-10T00:24:24.081Z,27.68
2017-04-10T00:25:23.218Z,27.20
2017-04-10T00:26:22.345Z,22.58
2017-04-10T00:27:21.493Z,22.83
2017-04-10T00:28:20.786Z,22.73
2017-04-10T00:29:19.942Z,23.60
2017-04-10T00:30:19.058Z,27.55
2017-04-10T00:31:18.182Z,23.92
2017-04-10T00:32:17.359Z,22.10
2017-04-10T00:33:16.521Z,24.02
2017-04-10T00:34:15.687Z,22.97
2017-04-10T00:35:14.821Z,24.30
2017-04-10T00:36:13.967Z,23.38
2017-04-10T00:37:13.115Z,28.30
2017-04-10T00:38:12.254Z,22.27
2017-04-10T00:39:11.410Z,26.72
2017-04-10T00:40:10.730Z,24.53
2017-04-10T00:41:09.874Z,23.58
2017-04-10T00:42:09.017Z,24.85
2017-04-10T00:43:08.894Z,27.40
2017-04-10T00:44:07.979Z,22.45
2017-04-10T00:45:07.059Z,23.98
2017-04-10T00:46:06.204Z,22.73
2017-04-10T00:47:05.283Z,21.97
2017-04-10T00:48:04.366Z,25.32
2017-04-10T00:49:03.454Z,25.98
2017-04-10T00:50:02.544Z,23.73
2017-04-10T00:51:01.663Z,24.40
2017-04-10T00:52:00.794Z,26.70
2017-04-10T00:52:59.874Z,23.48
2017-04-10T00:53:58.955Z,24.13
2017-04-10T00:54:58.058Z,23.05
2017-04-10T00:55:57.138Z,22.33
2017-04-10T00:56:56.221Z,23.07
2017-04-10T00:57:55.470Z,25.92
2017-04-10T00:58:54.554Z,26.33
2017-04-10T00:59:53.635Z,27.42
2017-04-10T01:00:52.726Z,33.05
2017-04-10T01:01:51.849Z,25.22
2017-04-10T01:02:50.959Z,35.68
2017-04-10T01:03:50.090Z,28.02
2017-04-10T01:04:49.211Z,28.32
2017-04-10T01:05:48.294Z,24.58
2017-04-10T01:06:47.403Z,28.88
2017-04-10T01:07:46.486Z,30.42
2017-04-10T01:08:45.566Z,33.62
2017-04-10T01:09:44.676Z,31.43
2017-04-10T01:10:43.754Z,34.18
2017-04-10T01:11:42.837Z,36.38
2017-04-10T01:12:41.938Z,33.87
2017-04-10T01:13:41.035Z,32.90
2017-04-10T01:14:40.131Z,37.33
2017-04-10T01:15:39.267Z,36.85
2017-04-10T01:16:38.357Z,36.92
2017-04-10T01:17:37.450Z,40.23
2017-04-10T01:18:36.546Z,42.45
2017-04-10T01:19:35.622Z,36.80
2017-04-10T01:20:34.701Z,39.20
2017-04-10T01:21:33.831Z,42.88
2017-04-10T01:22:32.922Z,37.92
2017-04-10T01:23:32.079Z,38.35
2017-04-10T01:24:31.158Z,35.53
2017-04-10T01:25:30.234Z,34.97
2017-04-10T01:26:29.314Z,31.38
2017-04-10T01:27:28.454Z,40.85
2017-04-10T01:28:27.542Z,39.68
2017-04-10T01:29:26.673Z,44.20
2017-04-10T01:30:25.757Z,42.70
2017-04-10T01:31:24.846Z,35.18
2017-04-10T01:32:23.962Z,38.55
2017-04-10T01:33:23.090Z,37.23
2017-04-10T01:34:22.175Z,41.12
2017-04-10T01:35:21.258Z,39.48
2017-04-10T01:36:20.342Z,37.32
2017-04-10T01:37:19.442Z,42.43
2017-04-10T01:38:18.530Z,41.63
2017-04-10T01:39:17.671Z,35.17
2017-04-10T01:40:16.810Z,36.28
2017-04-10T01:41:15.913Z,37.92
2017-04-10T01:42:14.997Z,38.57
2017-04-10T01:43:14.105Z,33.17
2017-04-10T01:44:13.202Z,35.23
2017-04-10T01:45:12.489Z,35.98
2017-04-10T01:46:11.569Z,34.62
2017-04-10T01:47:10.654Z,35.75
2017-04-10T01:48:09.741Z,47.20
2017-04-10T01:49:08.832Z,33.32
2017-04-10T01:50:07.918Z,36.17
2017-04-10T01:51:07.143Z,39.83
2017-04-10T01:52:06.233Z,32.92
2017-04-10T01:53:05.326Z,34.33
2017-04-10T01:54:04.462Z,35.02
2017-04-10T01:55:03.546Z,31.42
2017-04-10T01:56:02.631Z,37.52
2017-04-10T01:57:01.763Z,31.78
2017-04-10T01:58:00.898Z,37.13
2017-04-10T01:59:00.050Z,32.88
2017-04-10T01:59:59.142Z,32.97
2017-04-10T02:00:58.231Z,33.10
2017-04-10T02:01:57.386Z,35.28
2017-04-10T02:02:56.553Z,35.20
2017-04-10T02:03:56.146Z,38.15
2017-04-10T02:04:55.238Z,33.27
2017-04-10T02:05:54.350Z,38.47
2017-04-10T02:06:53.506Z,32.20
2017-04-10T02:07:52.858Z,32.33
2017-04-10T02:08:51.994Z,33.15
2017-04-10T02:09:51.082Z,36.65
2017-04-10T02:10:50.170Z,30.87
2017-04-10T02:11:49.289Z,33.00
2017-04-10T02:12:48.377Z,29.45
2017-04-10T02:13:47.467Z,32.72
2017-04-10T02:14:46.579Z,30.42
2017-04-10T02:15:45.665Z,31.27
2017-04-10T02:16:44.765Z,34.48
2017-04-10T02:17:43.847Z,33.37
2017-04-10T02:18:42.934Z,33.17
2017-04-10T02:19:42.039Z,31.53
2017-04-10T02:20:41.162Z,31.02
2017-04-10T02:21:40.262Z,36.77
2017-04-10T02:22:39.394Z,31.32
2017-04-10T02:23:38.538Z,28.33
2017-04-10T02:24:37.618Z,26.83
2017-04-10T02:25:36.711Z,39.32
2017-04-10T02:26:35.826Z,29.22
2017-04-10T02:27:34.929Z,31.32
2017-04-10T02:28:34.050Z,28.42
2017-04-10T02:29:33.150Z,29.65
2017-04-10T02:30:32.246Z,31.93
2017-04-10T02:31:31.343Z,33.35
2017-04-10T02:32:30.466Z,30.52
2017-04-10T02:33:29.554Z,29.22
2017-04-10T02:34:28.638Z,31.77
2017-04-10T02:35:27.726Z,31.00
2017-04-10T02:36:26.814Z,28.25
2017-04-10T02:37:25.900Z,33.92
2017-04-10T02:38:25.111Z,27.80
2017-04-10T02:39:24.218Z,29.87
2017-04-10T02:40:23.310Z,30.53
2017-04-10T02:41:22.401Z,32.23
2017-04-10T02:42:21.498Z,30.47
2017-04-10T02:43:20.614Z,30.73
2017-04-10T02:44:19.741Z,28.67
2017-04-10T02:45:18.830Z,29.05
2017-04-10T02:46:17.981Z,32.13
2017-04-10T02:47:17.065Z,30.75
2017-04-10T02:48:16.155Z,31.02
2017-04-10T02:49:15.243Z,31.57
2017-04-10T02:50:14.370Z,29.88
2017-04-10T02:51:13.461Z,30.52
2017-04-10T02:52:12.541Z,30.48
2017-04-10T02:53:11.651Z,24.67
2017-04-10T02:54:10.745Z,28.12
2017-04-10T02:55:09.838Z,26.48
2017-04-10T02:56:09.054Z,27.45
2017-04-10T02:57:08.173Z,28.47
2017-04-10T02:58:07.268Z,29.82
2017-04-10T02:59:06.346Z,28.60
2017-04-10T03:00:05.506Z,29.72
2017-04-10T03:01:04.590Z,30.73
2017-04-10T03:02:03.711Z,31.13
2017-04-10T03:03:02.800Z,29.50
2017-04-10T03:04:01.886Z,29.92
2017-04-10T03:05:00.995Z,33.08
2017-04-10T03:06:00.098Z,28.65
2017-04-10T03:06:59.194Z,27.98
2017-04-10T03:07:58.355Z,30.50
2017-04-10T03:08:57.441Z,28.52
2017-04-10T03:09:56.529Z,24.68
2017-04-10T03:10:55.638Z,26.88
2017-04-10T03:11:54.730Z,27.60
2017-04-10T03:12:53.809Z,31.55
2017-04-10T03:13:53.178Z,25.30
2017-04-10T03:14:52.273Z,28.87
2017-04-10T03:15:51.374Z,26.55
2017-04-10T03:16:50.458Z,28.07
2017-04-10T03:17:49.570Z,25.58
2017-04-10T03:18:48.664Z,28.03
2017-04-10T03:19:47.794Z,29.17
2017-04-10T03:20:46.873Z,27.07
2017-04-10T03:21:45.959Z,27.12
2017-04-10T03:22:45.103Z,25.42
2017-04-10T03:23:44.194Z,26.93
2017-04-10T03:24:43.285Z,23.22
2017-04-10T03:25:42.413Z,24.45
2017-04-10T03:26:41.498Z,28.35
2017-04-10T03:27:40.586Z,28.65
2017-04-10T03:28:39.675Z,23.47
2017-04-10T03:29:38.753Z,31.12
2017-04-10T03:30:37.839Z,26.87
2017-04-10T03:31:36.962Z,29.43
2017-04-10T03:32:36.051Z,25.93
2017-04-10T03:33:35.146Z,26.07
2017-04-10T03:34:34.234Z,26.37
2017-04-10T03:35:33.330Z,26.25
2017-04-10T03:36:32.415Z,25.17
2017-04-10T03:37:31.538Z,31.52
2017-04-10T03:38:30.627Z,26.67
2017-04-10T03:39:29.718Z,27.17
2017-04-10T03:40:28.802Z,26.10
2017-04-10T03:41:27.933Z,28.98
2017-04-10T03:42:27.058Z,32.02
2017-04-10T03:43:26.346Z,28.33
2017-04-10T03:44:25.429Z,24.75
2017-04-10T03:45:24.521Z,24.83
2017-04-10T03:46:23.615Z,27.13
2017-04-10T03:47:22.702Z,25.17
2017-04-10T03:48:21.790Z,22.83
2017-04-10T03:49:20.950Z,24.42
2017-04-10T03:50:20.030Z,26.97
2017-04-10T03:51:19.120Z,26.30
2017-04-10T03:52:18.208Z,24.22
2017-04-10T03:53:17.302Z,24.80
2017-04-10T03:54:16.391Z,25.08
2017-04-10T03:55:15.638Z,30.83
2017-04-10T03:56:14.751Z,24.87
2017-04-10T03:57:13.837Z,22.90
2017-04-10T03:58:12.923Z,27.25
2017-04-10T03:59:12.014Z,31.98
2017-04-10T04:00:11.106Z,25.95
2017-04-10T04:01:10.239Z,28.08
2017-04-10T04:02:09.359Z,27.45
2017-04-10T04:03:08.455Z,24.50
2017-04-10T04:04:07.546Z,25.58
2017-04-10T04:05:06.638Z,25.15
2017-04-10T04:06:05.862Z,27.57
2017-04-10T04:07:04.994Z,24.07
2017-04-10T04:08:04.142Z,26.00
2017-04-10T04:09:03.314Z,23.03
2017-04-10T04:10:02.406Z,26.17
2017-04-10T04:11:01.529Z,28.97
2017-04-10T04:12:00.634Z,23.33
2017-04-10T04:12:59.774Z,22.67
2017-04-10T04:13:58.874Z,21.70
2017-04-10T04:14:57.966Z,24.63
2017-04-10T04:15:57.098Z,26.23
2017-04-10T04:16:57.610Z,26.35
2017-04-10T04:17:56.694Z,21.32
2017-04-10T04:18:55.909Z,26.42
2017-04-10T04:19:54.999Z,25.35
2017-04-10T04:20:54.098Z,22.05
2017-04-10T04:21:53.186Z,24.43
2017-04-10T04:22:52.306Z,21.83
2017-04-10T04:23:51.393Z,26.68
2017-04-10T04:24:50.514Z,22.65
2017-04-10T04:25:49.597Z,25.63
2017-04-10T04:26:48.705Z,24.63
2017-04-10T04:27:47.793Z,25.32
2017-04-10T04:28:46.881Z,25.95
2017-04-10T04:29:45.974Z,28.72
2017-04-10T04:30:45.098Z,29.63
2017-04-10T04:31:44.186Z,25.28
2017-04-10T04:32:43.285Z,22.42
2017-04-10T04:33:42.385Z,26.88
2017-04-10T04:34:41.471Z,23.52
2017-04-10T04:35:40.554Z,27.28
2017-04-10T04:36:39.679Z,23.80
2017-04-10T04:37:38.770Z,24.25
2017-04-10T04:38:37.880Z,28.03
2017-04-10T04:39:36.961Z,25.17
2017-04-10T04:40:36.046Z,24.73
2017-04-10T04:41:35.131Z,25.38
2017-04-10T04:42:34.338Z,22.53
2017-04-10T04:43:33.427Z,25.52
2017-04-10T04:44:32.520Z,26.78
2017-04-10T04:45:31.610Z,28.15
2017-04-10T04:46:30.698Z,26.40
2017-04-10T04:47:29.786Z,26.47
2017-04-10T04:48:29.034Z,26.82
2017-04-10T04:49:28.122Z,26.73
2017-04-10T04:50:27.213Z,26.23
2017-04-10T04:51:26.313Z,24.45
2017-04-10T04:52:25.398Z,26.40
2017-04-10T04:53:24.494Z,25.22
2017-04-10T04:54:23.618Z,28.82
2017-04-10T04:55:22.702Z,26.38
2017-04-10T04:56:21.787Z,29.25
2017-04-10T04:57:20.878Z,25.30
2017-04-10T04:58:19.966Z,33.20
2017-04-10T04:59:19.050Z,23.83
2017-04-10T05:00:18.270Z,25.22
2017-04-10T05:01:17.366Z,31.00
2017-04-10T05:02:16.478Z,30.28
2017-04-10T05:03:15.578Z,33.13
2017-04-10T05:04:14.690Z,31.28
2017-04-10T05:05:13.782Z,34.00
2017-04-10T05:06:13.222Z,27.45
2017-04-10T05:07:12.318Z,26.20
2017-04-10T05:08:11.423Z,34.82
2017-04-10T05:09:10.510Z,30.57
2017-04-10T05:10:09.626Z,31.32
2017-04-10T05:11:08.723Z,32.43
2017-04-10T05:12:07.833Z,30.57
2017-04-10T05:13:06.926Z,32.37
2017-04-10T05:14:06.014Z,32.33
2017-04-10T05:15:05.137Z,32.35
2017-04-10T05:16:04.230Z,33.02
2017-04-10T05:17:03.318Z,32.17
2017-04-10T05:18:02.482Z,33.33
2017-04-10T05:19:01.567Z,34.80
2017-04-10T05:20:00.641Z,32.20
2017-04-10T05:20:59.726Z,35.87
2017-04-10T05:21:58.810Z,31.27
2017-04-10T05:22:57.900Z,33.57
2017-04-10T05:23:57.163Z,37.42
2017-04-10T05:24:56.247Z,34.85
2017-04-10T05:25:55.334Z,35.30
2017-04-10T05:26:54.481Z,33.53
2017-04-10T05:27:53.570Z,35.75
2017-04-10T05:28:52.653Z,37.90
2017-04-10T05:29:51.773Z,36.00
2017-04-10T05:30:50.858Z,35.83
2017-04-10T05:31:49.953Z,38.30
2017-04-10T05:32:49.054Z,37.52
2017-04-10T05:33:48.146Z,37.83
2017-04-10T05:34:47.230Z,38.63
2017-04-10T05:35:46.358Z,34.97
2017-04-10T05:36:45.447Z,36.75
2017-04-10T05:37:44.533Z,40.32
2017-04-10T05:38:43.622Z,41.78
2017-04-10T05:39:42.745Z,36.00
2017-04-10T05:40:41.830Z,40.68
2017-04-10T05:41:40.966Z,36.00
2017-04-10T05:42:40.054Z,41.72
2017-04-10T05:43:39.150Z,39.45
2017-04-10T05:44:38.238Z,39.10
2017-04-10T05:45:37.322Z,38.20
2017-04-10T05:46:36.411Z,45.28
2017-04-10T05:47:35.539Z,37.60
2017-04-10T05:48:34.625Z,48.10
2017-04-10T05:49:33.720Z,39.65
2017-04-10T05:50:32.814Z,44.00
2017-04-10T05:51:31.898Z,43.60
2017-04-10T05:52:31.002Z,44.98
2017-04-10T05:53:30.214Z,42.33
2017-04-10T05:54:29.350Z,45.53
2017-04-10T05:55:28.438Z,42.37
2017-04-10T05:56:27.530Z,44.78
2017-04-10T05:57:26.614Z,44.70
2017-04-10T05:58:25.702Z,45.75
2017-04-10T05:59:25.018Z,45.18
2017-04-10T06:00:24.169Z,49.05
2017-04-10T06:01:23.254Z,45.33
2017-04-10T06:02:22.354Z,48.07
2017-04-10T06:03:21.442Z,44.03
2017-04-10T06:04:20.557Z,47.80
2017-04-10T06:05:19.962Z,48.10
2017-04-10T06:06:19.041Z,51.53
2017-04-10T06:07:18.127Z,50.78
2017-04-10T06:08:17.226Z,49.42
2017-04-10T06:09:16.345Z,51.60
2017-04-10T06:10:15.438Z,53.05
2017-04-10T06:11:14.666Z,46.60
2017-04-10T06:12:13.750Z,56.03
2017-04-10T06:13:12.842Z,52.28
2017-04-10T06:14:11.942Z,55.23
2017-04-10T06:15:11.058Z,51.67
2017-04-10T06:16:10.158Z,60.28
2017-04-10T06:17:09.271Z,51.48
2017-04-10T06:18:08.355Z,49.63
2017-04-10T06:19:07.474Z,55.45
2017-04-10T06:20:06.563Z,54.03
2017-04-10T06:21:05.655Z,58.12
2017-04-10T06:22:04.748Z,53.58
2017-04-10T06:23:04.171Z,51.42
2017-04-10T06:24:03.281Z,49.57
2017-04-10T06:25:02.408Z,56.78
2017-04-10T06:26:01.511Z,52.12
2017-04-10T06:27:00.632Z,55.50
2017-04-10T06:27:59.728Z,49.95
2017-04-10T06:28:58.866Z,53.17
2017-04-10T06:29:57.957Z,54.32
2017-04-10T06:30:57.062Z,49.45
2017-04-10T06:31:56.175Z,46.92
2017-04-10T06:32:55.318Z,63.05
2017-04-10T06:33:54.425Z,57.00
2017-04-10T06:34:53.585Z,53.27
2017-04-10T06:35:52.739Z,51.73
2017-04-10T06:36:51.863Z,52.58
2017-04-10T06:37:50.961Z,51.63
2017-04-10T06:38:50.087Z,50.98
2017-04-10T06:39:49.222Z,47.07
2017-04-10T06:44:05.378Z,51.15
2017-04-10T06:45:04.462Z,51.65
2017-04-10T06:46:03.581Z,43.85
2017-04-10T06:47:02.675Z,45.82
2017-04-10T06:48:02.771Z,44.68
2017-04-10T06:49:01.862Z,40.13
2017-04-10T06:50:00.961Z,46.90
2017-04-10T06:51:00.082Z,44.17
2017-04-10T06:51:59.198Z,51.03
2017-04-10T06:52:58.310Z,46.15
2017-04-10T06:53:57.437Z,48.57
2017-04-10T06:54:56.539Z,40.62
2017-04-10T06:55:55.640Z,40.45
2017-04-10T06:56:54.839Z,49.92
2017-04-10T06:57:53.944Z,42.28
2017-04-10T06:58:53.050Z,44.35
2017-04-10T06:59:52.174Z,44.18
2017-04-10T07:00:51.294Z,44.10
2017-04-10T07:01:50.430Z,46.18
2017-04-10T07:03:02.923Z,43.25
2017-04-10T07:04:02.067Z,40.88
2017-04-10T07:05:01.175Z,42.10
2017-04-10T07:06:00.361Z,47.23
2017-04-10T07:06:59.497Z,52.05
2017-04-10T07:07:58.621Z,45.95
2017-04-10T07:08:57.737Z,42.72
2017-04-10T07:09:56.851Z,45.03
2017-04-10T07:10:55.966Z,40.48
2017-04-10T07:11:55.058Z,43.20
2017-04-10T07:12:54.304Z,39.80
2017-04-10T07:13:53.415Z,43.03
2017-04-10T07:14:52.530Z,45.88
2017-04-10T07:15:51.622Z,44.97
2017-04-10T07:16:50.726Z,47.43
2017-04-10T07:17:49.818Z,46.25
2017-04-10T07:18:49.050Z,44.63
2017-04-10T07:19:48.163Z,43.03
2017-04-10T07:20:47.262Z,48.03
2017-04-10T07:21:46.363Z,42.40
2017-04-10T07:22:45.470Z,45.98
2017-04-10T07:23:44.597Z,40.73
2017-04-10T07:24:43.739Z,44.10
2017-04-10T07:25:42.838Z,43.43
2017-04-10T07:26:41.936Z,46.55
2017-04-10T07:27:41.033Z,44.35
2017-04-10T07:28:40.134Z,48.03
2017-04-10T07:29:39.219Z,43.38
2017-04-10T07:30:38.337Z,40.30
2017-04-10T07:31:37.414Z,45.10
2017-04-10T07:32:36.497Z,43.58
2017-04-10T07:33:35.586Z,41.98
2017-04-10T07:34:34.666Z,39.13
2017-04-10T07:35:33.750Z,43.08
2017-04-10T07:36:32.894Z,47.35
2017-04-10T07:37:31.974Z,43.65
2017-04-10T07:38:31.067Z,42.52
2017-04-10T07:39:30.159Z,44.70
2017-04-10T07:40:29.258Z,45.70
2017-04-10T07:41:28.347Z,48.83
2017-04-10T07:42:27.483Z,41.38
2017-04-10T07:43:26.579Z,41.75
2017-04-10T07:44:26.947Z,45.00
2017-04-10T07:45:26.039Z,42.08
2017-04-10T07:46:25.126Z,39.65
2017-04-10T07:47:24.209Z,38.03
2017-04-10T07:48:23.418Z,39.13
2017-04-10T07:49:22.505Z,44.62
2017-04-10T07:50:21.599Z,38.12
2017-04-10T07:51:20.690Z,44.73
2017-04-10T07:52:19.814Z,47.53
2017-04-10T07:53:18.899Z,39.67
2017-04-10T07:54:18.034Z,41.55
2017-04-10T07:55:17.124Z,42.20
2017-04-10T07:56:16.214Z,35.93
2017-04-10T07:57:15.322Z,38.67
2017-04-10T07:58:14.413Z,44.58
2017-04-10T07:59:13.526Z,40.62
2017-04-10T08:00:12.722Z,41.47
2017-04-10T08:01:11.806Z,36.47
2017-04-10T08:02:10.890Z,38.17
2017-04-10T08:03:09.979Z,47.08
2017-04-10T08:04:09.162Z,35.88
2017-04-10T08:05:08.278Z,37.17
2017-04-10T08:06:07.413Z,38.43
2017-04-10T08:07:06.498Z,38.42
2017-04-10T08:08:05.586Z,43.63
2017-04-10T08:09:05.363Z,42.83
2017-04-10T08:10:04.455Z,43.67
2017-04-10T08:11:03.557Z,42.38
2017-04-10T08:12:02.850Z,37.85
2017-04-10T08:13:01.959Z,38.35
2017-04-10T08:14:01.069Z,38.58
2017-04-10T08:15:00.163Z,40.93
2017-04-10T08:15:59.250Z,40.90
2017-04-10T08:16:58.358Z,44.23
2017-04-10T08:17:57.823Z,36.95
2017-04-10T08:18:56.937Z,38.78
2017-04-10T08:19:56.054Z,33.88
2017-04-10T08:20:55.143Z,38.05
2017-04-10T08:21:54.790Z,39.98
2017-04-10T08:22:53.898Z,41.87
2017-04-10T08:23:53.302Z,41.03
2017-04-10T08:24:52.390Z,33.93
2017-04-10T08:25:51.489Z,35.00
2017-04-10T08:26:50.586Z,41.78
2017-04-10T08:27:49.769Z,31.82
2017-04-10T08:28:48.923Z,35.57
2017-04-10T08:29:48.076Z,38.40
2017-04-10T08:30:47.194Z,37.80
2017-04-10T08:31:46.302Z,43.57
2017-04-10T08:32:45.389Z,48.83
2017-04-10T08:33:44.478Z,36.08
2017-04-10T08:34:43.574Z,46.02
2017-04-10T08:35:42.718Z,42.82
2017-04-10T08:36:41.826Z,48.60
2017-04-10T08:37:40.921Z,43.07
2017-04-10T08:38:40.042Z,43.53
2017-04-10T08:39:39.138Z,44.23
2017-04-10T08:40:38.243Z,41.50
2017-04-10T08:41:37.381Z,43.15
2017-04-10T08:42:36.476Z,40.93
2017-04-10T08:43:35.583Z,49.20
2017-04-10T08:44:34.708Z,46.92
2017-04-10T08:45:33.850Z,38.87
2017-04-10T08:46:32.954Z,40.18
2017-04-10T08:47:32.126Z,41.15
2017-04-10T08:48:31.246Z,38.48
2017-04-10T08:49:30.415Z,40.40
2017-04-10T08:50:29.538Z,37.15
2017-04-10T08:51:28.635Z,37.40
2017-04-10T08:52:27.721Z,38.35
2017-04-10T08:53:28.387Z,41.28
2017-04-10T08:54:27.489Z,35.58
2017-04-10T08:55:26.565Z,37.38
2017-04-10T08:56:25.678Z,39.92
2017-04-10T08:57:24.774Z,37.32
2017-04-10T08:58:23.860Z,40.13
2017-04-10T08:59:23.286Z,37.62
2017-04-10T09:00:22.430Z,40.87
2017-04-10T09:01:21.551Z,45.15
2017-04-10T09:02:20.649Z,36.10
2017-04-10T09:03:19.749Z,35.43
2017-04-10T09:04:18.884Z,38.50
2017-04-10T09:05:18.259Z,35.58
2017-04-10T09:06:17.431Z,34.75
2017-04-10T09:07:16.560Z,37.78
2017-04-10T09:08:15.658Z,36.37
2017-04-10T09:09:14.802Z,40.67
2017-04-10T09:10:13.919Z,37.42
2017-04-10T09:11:13.194Z,35.92
2017-04-10T09:12:12.291Z,40.65
2017-04-10T09:13:11.403Z,32.63
2017-04-10T09:14:10.566Z,30.95
2017-04-10T09:15:09.653Z,28.87
2017-04-10T09:16:08.755Z,29.20
2017-04-10T09:17:08.137Z,30.48
2017-04-10T09:18:07.230Z,30.85
2017-04-10T09:19:06.342Z,29.48
2017-04-10T09:20:05.453Z,27.03
2017-04-10T09:21:04.554Z,31.30
2017-04-10T09:22:03.686Z,31.98
2017-04-10T09:23:02.826Z,28.88
2017-04-10T09:24:01.930Z,33.43
2017-04-10T09:25:01.014Z,33.22
2017-04-10T09:26:00.118Z,33.28
2017-04-10T09:26:59.531Z,24.75
2017-04-10T09:27:58.619Z,24.18
2017-04-10T09:28:57.901Z,29.63
2017-04-10T09:29:57.018Z,35.12
2017-04-10T09:30:56.361Z,29.15
2017-04-10T09:31:55.471Z,31.00
2017-04-10T09:32:54.565Z,26.37
2017-04-10T09:33:53.658Z,26.75
2017-04-10T09:34:52.809Z,30.00
2017-04-10T09:35:52.281Z,30.57
2017-04-10T09:36:51.431Z,29.95
2017-04-10T09:37:50.530Z,30.03
2017-04-10T09:38:49.628Z,28.48
2017-04-10T09:39:48.768Z,30.27
2017-04-10T09:40:47.899Z,27.77
2017-04-10T09:41:47.002Z,25.50
2017-04-10T09:42:46.153Z,25.23
2017-04-10T09:43:45.250Z,28.68
2017-04-10T09:44:44.374Z,28.18
2017-04-10T09:45:43.511Z,24.20
2017-04-10T09:46:42.651Z,31.47
2017-04-10T09:47:41.782Z,23.52
2017-04-10T09:48:40.889Z,24.92
2017-04-10T09:49:40.013Z,25.33
2017-04-10T09:50:39.130Z,20.92
2017-04-10T09:51:38.217Z,26.43
2017-04-10T09:52:37.342Z,25.58
2017-04-10T09:53:36.501Z,18.95
2017-04-10T09:54:35.662Z,25.87
2017-04-10T09:55:34.754Z,21.38
2017-04-10T09:56:33.842Z,26.63
2017-04-10T09:57:32.974Z,23.90
2017-04-10T09:58:32.098Z,27.80
2017-04-10T09:59:31.181Z,25.82
2017-04-10T10:00:30.295Z,22.02
2017-04-10T10:01:29.394Z,28.67
2017-04-10T10:02:28.477Z,24.68
2017-04-10T10:03:27.574Z,25.67
2017-04-10T10:04:27.007Z,27.42
2017-04-10T10:05:26.106Z,25.07
2017-04-10T10:06:25.193Z,23.33
2017-04-10T10:07:24.302Z,23.45
2017-04-10T10:08:23.406Z,18.02
2017-04-10T10:09:22.515Z,18.73
2017-04-10T10:10:21.735Z,19.35
2017-04-10T10:11:21.325Z,19.68
2017-04-10T10:12:20.410Z,19.35
2017-04-10T10:13:19.578Z,19.95
2017-04-10T10:14:18.683Z,20.02
2017-04-10T10:15:17.782Z,21.70
2017-04-10T10:16:16.932Z,19.78
2017-04-10T10:17:16.019Z,20.70
2017-04-10T10:18:15.114Z,23.17
2017-04-10T10:19:14.209Z,18.42
2017-04-10T10:20:13.330Z,20.63
2017-04-10T10:21:12.419Z,27.65
2017-04-10T10:22:11.861Z,21.23
2017-04-10T10:23:10.971Z,26.22
2017-04-10T10:24:10.070Z,24.75
2017-04-10T10:25:09.182Z,24.00
2017-04-10T10:26:08.266Z,24.03
2017-04-10T10:27:07.370Z,18.20
2017-04-10T10:28:07.613Z,28.82
2017-04-10T10:29:06.711Z,21.08
2017-04-10T10:30:05.811Z,24.60
2017-04-10T10:31:04.930Z,21.35
2017-04-10T10:32:04.023Z,21.45
2017-04-10T10:33:03.134Z,22.12
2017-04-10T10:34:02.278Z,17.87
2017-04-10T10:35:01.391Z,20.03
2017-04-10T10:36:00.503Z,17.23
2017-04-10T10:36:59.614Z,22.18
2017-04-10T10:37:58.729Z,19.13
2017-04-10T10:38:57.825Z,15.33
2017-04-10T10:39:57.289Z,16.13
2017-04-10T10:40:56.383Z,21.97
2017-04-10T10:41:56.423Z,24.00
2017-04-10T10:42:56.579Z,19.33
2017-04-10T10:43:56.631Z,18.02
2017-04-10T10:44:55.746Z,16.17
2017-04-10T10:45:55.246Z,12.87
2017-04-10T10:46:54.827Z,22.95
2017-04-10T10:47:54.366Z,21.22
2017-04-10T10:48:53.829Z,18.60
2017-04-10T10:49:53.308Z,16.77
2017-04-10T10:50:52.842Z,20.13
2017-04-10T10:51:52.679Z,20.65
2017-04-10T10:52:52.350Z,16.70
2017-04-10T10:53:51.882Z,20.48
2017-04-10T10:54:51.316Z,13.13
2017-04-10T10:55:50.691Z,12.57
2017-04-10T10:56:50.120Z,17.10
2017-04-10T10:57:49.805Z,12.78
2017-04-10T10:58:49.287Z,17.13
2017-04-10T10:59:48.624Z,14.50
2017-04-10T11:00:48.053Z,14.50
2017-04-10T11:01:47.403Z,15.75
2017-04-10T11:02:46.921Z,24.40
2017-04-10T11:03:46.417Z,14.30
2017-04-10T11:04:45.922Z,14.55
2017-04-10T11:05:45.616Z,14.70
2017-04-10T11:14:03.682Z,11.88
2017-04-10T11:15:03.064Z,11.60
2017-04-10T11:16:02.496Z,15.38
2017-04-10T11:17:01.922Z,16.77
2017-04-10T11:18:01.355Z,13.93
2017-04-10T11:19:00.755Z,14.37
2017-04-10T11:20:00.256Z,10.92
2017-04-10T11:20:59.687Z,14.60
2017-04-10T11:21:59.114Z,14.95
2017-04-10T11:22:58.669Z,18.98
2017-04-10T11:23:58.108Z,15.02
2017-04-10T11:24:57.550Z,20.62
2017-04-10T11:25:57.892Z,14.42
2017-04-10T11:26:57.341Z,16.07
2017-04-10T11:27:56.859Z,18.58
2017-04-10T11:28:56.398Z,13.77
2017-04-10T11:29:55.908Z,13.95
2017-04-10T11:30:55.511Z,21.33
2017-04-10T11:31:55.005Z,20.43
2017-04-10T11:32:54.516Z,20.00
2017-04-10T11:33:53.928Z,15.30
2017-04-10T11:34:53.365Z,17.07
2017-04-10T11:35:52.981Z,17.12
2017-04-10T11:36:52.504Z,15.77
2017-04-10T11:37:51.976Z,17.16
2017-04-10T11:38:51.533Z,19.82
2017-04-10T11:39:51.159Z,14.52
2017-04-10T11:40:50.644Z,17.68
2017-04-10T11:41:50.657Z,18.60
2017-04-10T11:42:50.463Z,16.28
2017-04-10T11:43:49.896Z,20.20
2017-04-10T11:44:49.395Z,19.82
2017-04-10T11:45:48.852Z,21.47
2017-04-10T11:46:48.289Z,13.45
2017-04-10T11:49:12.122Z,16.97
2017-04-10T11:50:11.559Z,16.43
2017-04-10T11:51:10.945Z,19.45
2017-04-10T11:52:10.405Z,17.07
2017-04-10T11:53:10.137Z,12.58
2017-04-10T11:54:09.667Z,14.50
2017-04-10T11:55:09.042Z,14.17
2017-04-10T11:56:08.431Z,15.77
2017-04-10T11:57:07.766Z,16.45
2017-04-10T11:58:07.082Z,17.92
2017-04-10T11:59:06.473Z,17.28
2017-04-10T12:00:05.886Z,15.98
2017-04-10T12:01:05.014Z,11.90
2017-04-10T12:02:04.215Z,14.88
2017-04-10T12:03:03.514Z,17.13
2017-04-10T12:04:02.698Z,18.15
2017-04-10T12:05:01.849Z,21.43
2017-04-10T12:06:01.027Z,16.48
2017-04-10T12:07:00.272Z,18.02
2017-04-10T12:07:59.531Z,20.25
2017-04-10T12:08:58.945Z,20.43
2017-04-10T12:09:58.309Z,16.53
2017-04-10T12:10:57.705Z,12.85
2017-04-10T12:11:57.966Z,18.88
2017-04-10T12:12:57.457Z,14.10
2017-04-10T12:13:56.876Z,17.67
2017-04-10T12:14:56.206Z,20.43
2017-04-10T12:15:55.876Z,19.32
2017-04-10T12:16:55.348Z,15.07
2017-04-10T12:17:54.824Z,14.90
2017-04-10T12:18:54.366Z,16.28
2017-04-10T12:19:54.008Z,17.97
2017-04-10T12:20:54.549Z,12.25
2017-04-10T12:21:53.969Z,16.60
2017-04-10T12:22:53.473Z,10.85
2017-04-10T12:23:53.022Z,15.88
2017-04-10T12:24:52.443Z,11.05
2017-04-10T12:25:52.051Z,14.52
2017-04-10T12:26:51.484Z,13.10
2017-04-10T12:27:51.030Z,14.12
2017-04-10T12:28:50.511Z,10.15
2017-04-10T12:29:50.002Z,13.00
2017-04-10T12:30:49.441Z,12.55
2017-04-10T12:31:48.888Z,15.28
2017-04-10T12:32:48.357Z,13.85
2017-04-10T12:33:48.530Z,15.98
2017-04-10T12:34:47.968Z,14.68
2017-04-10T12:35:47.406Z,13.82
2017-04-10T12:36:46.898Z,18.78
2017-04-10T12:37:46.393Z,22.85
2017-04-10T12:38:45.816Z,12.92
2017-04-10T12:39:45.338Z,11.83
2017-04-10T12:40:44.926Z,13.52
2017-04-10T12:41:45.410Z,15.45
2017-04-10T12:42:44.810Z,12.45
2017-04-10T12:43:44.381Z,14.73
2017-04-10T12:44:43.921Z,12.42
2017-04-10T12:45:43.339Z,10.08
2017-04-10T12:46:42.834Z,14.53
2017-04-10T12:47:42.367Z,11.97
2017-04-10T12:48:41.859Z,12.70
2017-04-10T12:49:41.300Z,10.95
2017-04-10T12:50:40.803Z,9.38
2017-04-10T12:51:40.304Z,10.63
2017-04-10T12:52:39.803Z,11.40
2017-04-10T12:53:39.333Z,12.63
2017-04-10T12:54:38.895Z,9.05